createdAt,value
2022-08-28T00:02:23.807Z,378
2022-08-28T00:22:23.949Z,380
2022-08-28T00:42:23.464Z,379
2022-08-28T01:02:23.806Z,379
2022-08-28T01:22:23.986Z,379
2022-08-28T01:42:23.511Z,379
2022-08-28T02:22:24.042Z,380
2022-08-28T02:42:24.053Z,380
2022-08-28T03:02:24.130Z,380
2022-08-28T03:42:24.095Z,381
2022-08-28T04:02:24.105Z,382
2022-08-28T04:22:24.130Z,384
2022-08-28T04:42:24.148Z,384
2022-08-28T05:02:24.241Z,384
2022-08-28T05:22:24.174Z,385
2022-08-28T05:42:24.188Z,386
2022-08-28T06:02:24.286Z,386
2022-08-28T06:22:24.223Z,387
2022-08-28T06:42:24.248Z,386
2022-08-28T07:02:24.331Z,386
2022-08-28T07:22:24.271Z,387
2022-08-28T07:42:23.794Z,387
2022-08-28T08:02:24.309Z,385
2022-08-28T08:22:24.336Z,386
2022-08-28T08:42:23.843Z,387
2022-08-28T09:02:28.531Z,385
2022-08-28T09:22:24.365Z,385
2022-08-28T09:42:24.388Z,386
2022-08-28T10:02:23.891Z,386
2022-08-28T10:22:24.406Z,386
2022-08-28T10:42:24.427Z,385
2022-08-28T11:02:24.496Z,384
2022-08-28T11:22:24.442Z,383
2022-08-28T11:42:24.461Z,382
2022-08-28T12:02:23.986Z,386
2022-08-28T12:42:24.501Z,382
2022-08-28T13:02:24.614Z,384
2022-08-28T13:22:24.522Z,382
2022-08-28T14:22:24.557Z,373
2022-08-28T14:42:24.571Z,371
2022-08-28T15:02:24.590Z,372
2022-08-28T15:22:31.595Z,370
2022-08-28T15:42:24.618Z,370
2022-08-28T16:02:24.157Z,371
2022-08-28T16:22:24.640Z,371
2022-08-28T16:42:24.666Z,373
2022-08-28T17:02:24.679Z,375
2022-08-28T17:22:25.118Z,375
2022-08-28T17:42:24.670Z,374
2022-08-28T18:02:24.683Z,373
2022-08-28T18:22:29.087Z,373
2022-08-28T18:42:24.209Z,373
2022-08-28T19:02:24.858Z,371
2022-08-28T19:22:24.724Z,369
2022-08-28T19:42:24.767Z,369
2022-08-28T20:02:24.316Z,369
2022-08-28T20:22:24.769Z,372
2022-08-28T20:42:24.783Z,373
2022-08-28T21:02:24.818Z,374
2022-08-28T21:22:24.861Z,375
2022-08-28T21:42:24.831Z,375
2022-08-28T22:02:24.884Z,374
2022-08-28T22:22:24.857Z,375
2022-08-28T22:42:24.883Z,375
2022-08-28T23:02:27.237Z,375
2022-08-28T23:22:24.907Z,375
2022-08-28T23:42:24.940Z,375
